createdAt,value
2019-04-22T00:15:59.292Z,99.90
2019-04-22T00:21:07.208Z,99.90
2019-04-22T00:23:43.354Z,99.90
2019-04-22T00:26:12.619Z,99.90
2019-04-22T00:28:43.973Z,99.90
2019-04-22T00:31:18.909Z,99.90
2019-04-22T00:33:39.420Z,99.90
2019-04-22T00:36:13.050Z,99.90
2019-04-22T00:38:49.507Z,99.90
2019-04-22T00:43:48.206Z,99.90
2019-04-22T00:46:23.406Z,99.90
2019-04-22T00:48:40.155Z,99.90
2019-04-22T00:53:44.672Z,99.90
2019-04-22T01:03:50.358Z,99.90
2019-04-22T01:06:16.068Z,99.90
2019-04-22T01:08:52.990Z,99.90
2019-04-22T01:11:17.288Z,99.90
2019-04-22T01:13:44.251Z,99.90
2019-04-22T01:16:20.472Z,99.90
2019-04-22T01:18:42.437Z,99.90
2019-04-22T01:21:44.866Z,99.90
2019-04-22T01:23:49.149Z,99.90
2019-04-22T01:26:15.956Z,99.90
2019-04-22T01:31:04.821Z,99.90
2019-04-22T01:33:35.300Z,99.90
2019-04-22T01:36:22.873Z,99.90
2019-04-22T01:38:56.311Z,99.90
2019-04-22T01:41:32.185Z,99.90
2019-04-22T01:46:28.700Z,99.90
2019-04-22T01:48:54.300Z,99.90
2019-04-22T01:51:35.434Z,99.90
2019-04-22T01:54:01.225Z,99.90
2019-04-22T01:56:28.897Z,99.90
2019-04-22T01:58:50.325Z,99.90
2019-04-22T02:01:30.765Z,99.90
2019-04-22T02:04:01.110Z,99.90
2019-04-22T02:06:31.816Z,99.90
2019-04-22T02:09:00.532Z,99.90
2019-04-22T02:11:32.119Z,99.90
2019-04-22T02:13:59.174Z,99.90
2019-04-22T02:16:27.780Z,99.90
2019-04-22T02:19:01.168Z,99.90
2019-04-22T02:21:34.259Z,99.90
2019-04-22T02:24:07.010Z,99.90
2019-04-22T02:29:00.095Z,99.90
2019-04-22T02:31:40.538Z,99.90
2019-04-22T02:34:14.107Z,99.90
2019-04-22T02:39:05.699Z,99.90
2019-04-22T02:41:30.873Z,99.90
2019-04-22T02:44:08.282Z,99.90
2019-04-22T02:49:11.320Z,99.90
2019-04-22T02:56:37.846Z,99.90
2019-04-22T03:01:39.628Z,99.90
2019-04-22T03:09:14.491Z,99.90
2019-04-22T03:14:04.650Z,99.90
2019-04-22T03:16:41.122Z,99.90
2019-04-22T03:19:13.947Z,99.90
2019-04-22T03:21:38.241Z,99.90
2019-04-22T03:24:20.123Z,99.90
2019-04-22T03:29:21.366Z,99.90
2019-04-22T03:35:09.861Z,99.90
2019-04-22T03:39:38.539Z,99.90
2019-04-22T03:42:06.781Z,99.90
2019-04-22T03:47:09.487Z,99.90
2019-04-22T03:49:39.243Z,99.90
2019-04-22T03:52:07.302Z,99.90
2019-04-22T03:59:42.141Z,99.90
2019-04-22T04:02:05.504Z,99.90
2019-04-22T04:07:11.558Z,99.90
2019-04-22T04:09:33.744Z,99.90
2019-04-22T04:14:26.871Z,99.90
2019-04-22T04:17:02.100Z,99.90
2019-04-22T04:19:34.909Z,99.90
2019-04-22T04:21:57.840Z,99.90
2019-04-22T04:24:48.525Z,99.90
2019-04-22T04:27:11.283Z,99.90
2019-04-22T04:32:05.300Z,99.90
2019-04-22T04:39:26.746Z,99.90
2019-04-22T04:42:04.992Z,99.90
2019-04-22T04:44:50.778Z,99.90
2019-04-22T04:47:05.378Z,99.90
2019-04-22T04:57:17.445Z,99.90
2019-04-22T04:59:41.253Z,99.90
2019-04-22T05:04:41.368Z,99.90
2019-04-22T05:07:08.725Z,99.90
2019-04-22T05:09:33.494Z,99.90
2019-04-22T05:14:24.728Z,99.90
2019-04-22T05:17:21.760Z,99.90
2019-04-22T05:19:29.480Z,99.90
2019-04-22T05:22:02.379Z,99.90
2019-04-22T05:26:58.704Z,99.90
2019-04-22T05:29:35.127Z,99.90
2019-04-22T05:32:09.284Z,99.90
2019-04-22T05:34:28.009Z,99.90
2019-04-22T05:36:55.385Z,99.90
2019-04-22T05:39:24.598Z,99.90
2019-04-22T05:44:24.971Z,99.90
2019-04-22T05:46:52.800Z,99.90
2019-04-22T05:49:23.781Z,99.90
2019-04-22T05:52:01.188Z,99.90
2019-04-22T05:54:27.864Z,99.90
2019-04-22T05:56:51.934Z,99.90
2019-04-22T05:59:28.983Z,99.90
2019-04-22T06:04:23.260Z,99.90
2019-04-22T06:06:57.220Z,99.90
2019-04-22T06:09:28.374Z,99.90
2019-04-22T06:11:54.438Z,99.90
2019-04-22T06:19:31.584Z,99.90
2019-04-22T06:21:55.719Z,99.90
2019-04-22T06:24:57.789Z,99.90
2019-04-22T06:27:10.271Z,99.90
2019-04-22T06:29:41.754Z,99.90
2019-04-22T06:32:23.288Z,99.90
2019-04-22T06:37:11.647Z,99.90
2019-04-22T06:39:34.321Z,99.90
2019-04-22T06:42:11.523Z,99.90
2019-04-22T06:44:37.037Z,99.90
2019-04-22T06:47:10.607Z,98.20
2019-04-22T06:49:38.438Z,96.30
2019-04-22T06:52:07.777Z,95.00
2019-04-22T06:54:32.910Z,92.90
2019-04-22T06:57:19.492Z,91.30
2019-04-22T06:59:37.645Z,90.00
2019-04-22T07:02:11.659Z,88.70
2019-04-22T07:04:34.869Z,87.10
2019-04-22T07:07:08.348Z,88.30
2019-04-22T07:12:05.033Z,85.20
2019-04-22T07:14:39.912Z,85.30
2019-04-22T07:17:07.404Z,82.60
2019-04-22T07:19:38.315Z,81.90
2019-04-22T07:22:13.836Z,81.90
2019-04-22T07:27:12.906Z,83.90
2019-04-22T07:29:39.321Z,81.20
2019-04-22T07:32:06.680Z,79.20
2019-04-22T07:34:44.509Z,81.50
2019-04-22T07:37:22.821Z,80.80
2019-04-22T07:39:39.332Z,81.80
2019-04-22T07:42:12.607Z,79.40
2019-04-22T07:44:43.251Z,80.60
2019-04-22T07:47:18.515Z,78.60
2019-04-22T07:52:12.427Z,76.90
2019-04-22T07:54:41.696Z,77.60
2019-04-22T07:57:16.404Z,77.20
2019-04-22T07:59:46.687Z,77.50
2019-04-22T08:02:12.793Z,78.80
2019-04-22T08:04:56.130Z,76.30
2019-04-22T08:07:15.729Z,75.40
2019-04-22T08:09:47.802Z,76.70
2019-04-22T08:12:18.734Z,76.90
2019-04-22T08:14:42.367Z,73.70
2019-04-22T08:17:38.828Z,72.90
2019-04-22T08:19:44.615Z,71.80
2019-04-22T08:22:07.895Z,69.00
2019-04-22T08:24:51.295Z,68.30
2019-04-22T08:27:11.471Z,67.40
2019-04-22T08:29:52.376Z,64.10
2019-04-22T08:32:19.966Z,67.50
2019-04-22T08:34:42.654Z,62.30
2019-04-22T08:39:40.989Z,60.00
2019-04-22T08:42:17.925Z,57.90
2019-04-22T08:47:21.456Z,58.30
2019-04-22T08:49:50.729Z,57.70
2019-04-22T08:52:16.516Z,56.30
2019-04-22T08:57:24.160Z,57.60
2019-04-22T08:59:48.972Z,55.40
2019-04-22T09:02:23.633Z,55.50
2019-04-22T09:04:42.135Z,55.10
2019-04-22T09:12:26.506Z,52.80
2019-04-22T09:14:47.624Z,53.70
2019-04-22T09:17:22.793Z,53.20
2019-04-22T09:19:47.739Z,51.90
2019-04-22T09:22:16.837Z,50.90
2019-04-22T09:24:47.053Z,52.80
2019-04-22T09:27:24.914Z,52.20
2019-04-22T09:32:19.001Z,50.50
2019-04-22T09:34:50.200Z,55.30
2019-04-22T09:40:02.795Z,51.20
2019-04-22T09:42:18.733Z,49.10
2019-04-22T09:44:53.794Z,50.70
2019-04-22T09:47:19.110Z,50.30
2019-04-22T09:49:55.473Z,49.40
2019-04-22T09:52:26.424Z,50.20
2019-04-22T09:57:21.139Z,50.60
2019-04-22T10:00:00.583Z,46.90
2019-04-22T10:04:55.459Z,48.80
2019-04-22T10:07:24.137Z,48.60
2019-04-22T10:12:26.381Z,52.90
2019-04-22T10:14:55.893Z,47.50
2019-04-22T10:17:25.171Z,47.70
2019-04-22T10:19:57.906Z,46.40
2019-04-22T10:22:32.325Z,45.50
2019-04-22T10:25:01.738Z,46.50
2019-04-22T10:27:26.227Z,47.70
2019-04-22T10:32:27.028Z,48.60
2019-04-22T10:34:40.817Z,47.00
2019-04-22T10:37:04.725Z,46.70
2019-04-22T10:39:42.253Z,46.00
2019-04-22T10:42:04.994Z,45.10
2019-04-22T10:44:35.254Z,45.50
2019-04-22T10:47:04.245Z,47.70
2019-04-22T10:49:34.003Z,45.90
2019-04-22T10:52:02.723Z,46.70
2019-04-22T10:54:31.509Z,46.40
2019-04-22T10:57:01.076Z,45.50
2019-04-22T10:59:32.433Z,48.70
2019-04-22T11:02:01.407Z,46.80
2019-04-22T11:04:30.217Z,46.40
2019-04-22T11:07:03.771Z,43.00
2019-04-22T11:09:29.194Z,44.20
2019-04-22T11:12:04.408Z,43.60
2019-04-22T11:14:28.588Z,43.70
2019-04-22T11:17:00.274Z,45.00
2019-04-22T11:19:27.832Z,43.40
2019-04-22T11:22:06.937Z,43.90
2019-04-22T11:24:26.801Z,43.10
2019-04-22T11:26:56.918Z,45.40
2019-04-22T11:29:25.654Z,42.80
2019-04-22T11:31:54.633Z,40.80
2019-04-22T11:34:24.791Z,42.90
2019-04-22T11:39:21.811Z,41.30
2019-04-22T11:41:51.797Z,43.10
2019-04-22T11:44:21.377Z,40.60
2019-04-22T11:46:51.541Z,42.90
2019-04-22T11:49:21.658Z,40.70
2019-04-22T11:51:51.521Z,40.50
2019-04-22T11:54:20.986Z,42.10
2019-04-22T11:56:49.607Z,44.60
2019-04-22T11:59:18.556Z,43.40
2019-04-22T12:01:48.463Z,42.00
2019-04-22T12:04:18.020Z,40.80
2019-04-22T12:06:46.795Z,41.40
2019-04-22T12:09:17.379Z,40.90
2019-04-22T12:11:46.866Z,42.40
2019-04-22T12:14:15.862Z,40.50
2019-04-22T12:16:45.532Z,40.20
2019-04-22T12:19:15.650Z,40.30
2019-04-22T12:21:44.789Z,41.00
2019-04-22T12:24:13.522Z,50.10
2019-04-22T12:29:11.176Z,43.80
2019-04-22T12:31:39.972Z,39.80
2019-04-22T12:34:08.553Z,38.40
2019-04-22T12:36:38.311Z,40.00
2019-04-22T12:39:09.652Z,41.30
2019-04-22T12:41:38.412Z,40.30
2019-04-22T12:44:07.508Z,40.50
2019-04-22T12:46:36.615Z,39.50
2019-04-22T12:49:05.206Z,41.30
2019-04-22T12:51:33.905Z,40.80
2019-04-22T12:54:03.404Z,43.80
2019-04-22T12:56:51.509Z,42.30
2019-04-22T12:59:21.150Z,41.40
2019-04-22T13:01:51.177Z,42.00
2019-04-22T13:04:21.694Z,43.10
2019-04-22T13:06:50.115Z,40.90
2019-04-22T13:09:19.534Z,44.90
2019-04-22T13:11:48.987Z,46.70
2019-04-22T13:14:19.075Z,40.70
2019-04-22T13:16:49.086Z,43.50
2019-04-22T13:19:20.843Z,44.30
2019-04-22T13:21:49.031Z,43.30
2019-04-22T13:24:19.821Z,41.60
2019-04-22T13:26:48.797Z,39.00
2019-04-22T13:29:19.120Z,39.10
2019-04-22T13:31:48.917Z,41.30
2019-04-22T13:34:26.245Z,39.80
2019-04-22T13:36:48.812Z,44.10
2019-04-22T13:39:18.810Z,40.50
2019-04-22T13:41:53.750Z,38.10
2019-04-22T13:44:18.914Z,39.30
2019-04-22T13:47:02.056Z,43.90
2019-04-22T13:49:49.540Z,41.20
2019-04-22T13:52:22.616Z,40.30
2019-04-22T13:54:48.847Z,41.70
2019-04-22T13:57:03.919Z,39.60
2019-04-22T14:02:06.467Z,39.80
2019-04-22T14:04:36.877Z,41.20
2019-04-22T14:07:07.016Z,38.70
2019-04-22T14:09:36.019Z,39.80
2019-04-22T14:12:07.629Z,40.40
2019-04-22T14:14:35.723Z,42.50
2019-04-22T14:17:04.964Z,42.20
2019-04-22T14:19:34.032Z,43.70
2019-04-22T14:22:03.963Z,42.90
2019-04-22T14:24:32.586Z,40.50
2019-04-22T14:27:17.851Z,42.10
2019-04-22T14:29:31.526Z,43.10
2019-04-22T14:34:30.340Z,41.80
2019-04-22T14:36:59.434Z,42.50
2019-04-22T14:39:28.302Z,41.50
2019-04-22T14:42:19.622Z,38.10
2019-04-22T14:44:34.230Z,40.20
2019-04-22T14:47:20.058Z,39.40
2019-04-22T14:49:47.427Z,39.50
2019-04-22T14:52:21.494Z,39.30
2019-04-22T14:54:44.672Z,41.80
2019-04-22T14:56:58.984Z,42.00
2019-04-22T15:01:55.937Z,43.30
2019-04-22T15:04:24.404Z,42.10
2019-04-22T15:06:52.917Z,42.30
2019-04-22T15:09:21.837Z,38.70
2019-04-22T15:11:58.179Z,39.50
2019-04-22T15:14:21.520Z,42.20
2019-04-22T15:19:27.637Z,42.30
2019-04-22T15:21:56.612Z,42.50
2019-04-22T15:24:27.136Z,41.20
2019-04-22T15:26:58.303Z,41.30
2019-04-22T15:29:27.353Z,42.10
2019-04-22T15:31:57.548Z,40.10
2019-04-22T15:34:26.229Z,45.70
2019-04-22T15:36:55.974Z,43.40
2019-04-22T15:39:25.065Z,42.10
2019-04-22T15:42:00.385Z,40.20
2019-04-22T15:44:24.115Z,41.30
2019-04-22T15:46:53.181Z,42.10
2019-04-22T15:49:22.356Z,39.60
2019-04-22T15:51:53.259Z,41.80
2019-04-22T15:56:50.780Z,43.10
2019-04-22T15:59:41.630Z,41.10
2019-04-22T16:01:50.562Z,41.40
2019-04-22T16:04:19.201Z,38.90
2019-04-22T16:06:49.281Z,41.00
2019-04-22T16:11:47.633Z,39.30
2019-04-22T16:14:27.447Z,39.30
2019-04-22T16:16:46.517Z,40.50
2019-04-22T16:19:15.000Z,39.40
2019-04-22T16:21:51.787Z,41.30
2019-04-22T16:24:24.378Z,40.40
2019-04-22T16:26:54.488Z,41.00
2019-04-22T16:29:23.333Z,43.90
2019-04-22T16:31:53.453Z,41.60
2019-04-22T16:34:22.042Z,44.60
2019-04-22T16:36:50.583Z,45.00
2019-04-22T16:39:20.609Z,42.30
2019-04-22T16:41:50.815Z,42.10
2019-04-22T16:44:20.743Z,42.30
2019-04-22T16:46:50.009Z,45.40
2019-04-22T16:51:48.108Z,46.80
2019-04-22T16:54:17.695Z,44.40
2019-04-22T16:56:47.887Z,46.30
2019-04-22T16:59:16.999Z,45.50
2019-04-22T17:06:59.510Z,44.00
2019-04-22T17:09:28.205Z,44.30
2019-04-22T17:14:32.747Z,44.90
2019-04-22T17:16:55.037Z,47.80
2019-04-22T17:19:23.912Z,45.70
2019-04-22T17:21:53.465Z,47.70
2019-04-22T17:24:23.555Z,47.60
2019-04-22T17:26:52.611Z,45.70
2019-04-22T17:29:22.669Z,47.70
2019-04-22T17:34:21.378Z,46.40
2019-04-22T17:36:51.007Z,49.00
2019-04-22T17:39:33.080Z,48.50
2019-04-22T17:42:12.504Z,46.10
2019-04-22T17:47:14.106Z,47.20
2019-04-22T17:57:22.395Z,60.50
2019-04-22T17:59:53.953Z,54.80
2019-04-22T18:04:40.070Z,58.60
2019-04-22T18:10:16.548Z,62.70
2019-04-22T18:12:35.776Z,59.30
2019-04-22T18:17:23.715Z,64.50
2019-04-22T18:19:51.504Z,61.30
2019-04-22T18:24:50.435Z,64.40
2019-04-22T18:29:48.590Z,64.50
2019-04-22T18:34:44.300Z,63.40
2019-04-22T18:39:53.032Z,57.90
2019-04-22T18:49:49.378Z,62.40
2019-04-22T18:55:07.239Z,63.60
2019-04-22T19:00:04.761Z,68.10
2019-04-22T19:02:35.618Z,67.90
2019-04-22T19:18:02.168Z,68.90
2019-04-22T19:20:30.956Z,64.30
2019-04-22T19:23:00.559Z,67.00
2019-04-22T19:25:23.961Z,69.50
2019-04-22T19:28:01.342Z,69.20
2019-04-22T19:30:30.243Z,64.30
2019-04-22T19:35:26.596Z,70.20
2019-04-22T19:37:53.860Z,65.60
2019-04-22T19:45:38.359Z,70.40
2019-04-22T19:58:17.727Z,63.00
2019-04-22T20:00:41.763Z,67.70
2019-04-22T20:03:45.680Z,72.60
2019-04-22T20:06:31.917Z,73.00
2019-04-22T20:18:59.562Z,75.30
2019-04-22T20:21:28.349Z,75.70
2019-04-22T20:26:23.239Z,74.40
2019-04-22T20:31:31.826Z,76.40
2019-04-22T20:34:10.739Z,76.50
2019-04-22T20:38:59.548Z,75.00
2019-04-22T20:41:25.164Z,75.70
2019-04-22T20:44:04.618Z,78.60
2019-04-22T20:46:29.807Z,76.30
2019-04-22T20:49:05.087Z,76.10
2019-04-22T20:51:45.801Z,77.20
2019-04-22T20:56:30.006Z,78.20
2019-04-22T20:59:05.039Z,77.80
2019-04-22T21:01:36.883Z,74.00
2019-04-22T21:03:51.556Z,83.40
2019-04-22T21:06:33.309Z,78.60
2019-04-22T21:11:34.325Z,79.60
2019-04-22T21:14:01.354Z,82.10
2019-04-22T21:16:40.148Z,80.40
2019-04-22T21:19:10.026Z,85.30
2019-04-22T21:21:38.488Z,80.20
2019-04-22T21:23:59.671Z,80.80
2019-04-22T21:26:36.561Z,81.20
2019-04-22T21:29:03.912Z,81.60
2019-04-22T21:31:43.498Z,81.20
2019-04-22T21:34:06.903Z,80.80
2019-04-22T21:36:56.031Z,81.70
2019-04-22T21:41:37.421Z,82.40
2019-04-22T21:44:06.022Z,77.60
2019-04-22T21:46:42.304Z,87.30
2019-04-22T21:49:10.864Z,82.70
2019-04-22T21:51:43.180Z,83.00
2019-04-22T21:54:15.457Z,84.40
2019-04-22T21:56:52.744Z,84.10
2019-04-22T21:59:15.754Z,88.50
2019-04-22T22:01:52.840Z,84.00
2019-04-22T22:04:20.700Z,84.60
2019-04-22T22:09:21.714Z,84.90
2019-04-22T22:11:50.789Z,85.00
2019-04-22T22:16:42.920Z,89.70
2019-04-22T22:19:20.894Z,87.30
2019-04-22T22:24:22.691Z,87.30
2019-04-22T22:26:50.881Z,87.50
2019-04-22T22:31:52.964Z,91.20
2019-04-22T22:34:24.830Z,88.40
2019-04-22T22:36:46.523Z,89.30
2019-04-22T22:39:14.075Z,91.90
2019-04-22T22:41:31.863Z,90.00
2019-04-22T22:44:08.754Z,90.70
2019-04-22T22:46:43.170Z,90.50
2019-04-22T22:52:00.139Z,86.00
2019-04-22T22:54:26.624Z,91.50
2019-04-22T22:59:23.552Z,90.00
2019-04-22T23:01:51.282Z,92.30
2019-04-22T23:04:29.586Z,94.40
2019-04-22T23:06:58.570Z,92.80
2019-04-22T23:16:41.911Z,92.50
2019-04-22T23:19:04.450Z,95.70
2019-04-22T23:24:21.350Z,97.20
2019-04-22T23:27:03.120Z,97.20
2019-04-22T23:29:32.287Z,96.90
2019-04-22T23:34:50.023Z,96.30
2019-04-22T23:37:19.139Z,96.80
2019-04-22T23:42:41.482Z,99.00
2019-04-22T23:44:56.634Z,97.60
2019-04-22T23:55:11.510Z,99.90
2019-04-22T23:57:42.403Z,99.30
